Atco, New Jersey
Current Conditions -  °F | °C
As of 3:04 AM on Monday 26 Jan 2015 (Local Time) from KVAY Reporting Station
Light Snow Light Snow  
Wind Chill: 22°   Ceiling: 4600
Heat Index: 29°   Visibility: 9mi
Dew Point: 22°   Wind: 7mph
Humidity: 75%   Direction: 60°ENE
Pressure: 29.96"   Gusts: NA
Location:  39.77°N, 74.89°W
Report Text: KVAY 260804Z AUTO 06006KT 9SM -SN SCT029 OVC046 M02/M06 A2996 RMK AO2 P0000 T10171056
Loading
Personal Weather Stations






























Interactive Weather Map New forecast layout! Learn more

10-Day Weather Forecast

Advertisements
Track Severe Weather on mobile